createdAt,value
2023-02-05T00:18:26.648Z,19.7
2023-02-05T00:48:26.640Z,19.6
2023-02-05T01:18:26.680Z,19.6
2023-02-05T01:48:26.629Z,19.5
2023-02-05T02:18:26.635Z,19.4
2023-02-05T02:48:26.675Z,19.3
2023-02-05T03:18:26.427Z,19.3
2023-02-05T03:48:26.681Z,19.2
2023-02-05T04:18:26.652Z,19.1
2023-02-05T04:48:26.655Z,19.1
2023-02-05T05:18:26.645Z,19.1
2023-02-05T05:48:26.628Z,19.3
2023-02-05T06:18:26.659Z,19.5
2023-02-05T06:48:26.673Z,19.6
2023-02-05T07:18:26.647Z,19.8
2023-02-05T07:48:26.642Z,19.9
2023-02-05T08:18:26.669Z,20.0
2023-02-05T08:48:26.767Z,20.2
2023-02-05T09:18:26.619Z,20.5
2023-02-05T09:48:26.681Z,20.6
2023-02-05T10:18:26.643Z,20.7
2023-02-05T10:48:26.739Z,20.8
2023-02-05T11:18:26.706Z,20.8
2023-02-05T11:48:26.424Z,20.8
2023-02-05T12:18:26.644Z,20.8
2023-02-05T12:48:26.657Z,20.8
2023-02-05T13:18:26.653Z,20.8
2023-02-05T13:48:26.604Z,20.8
2023-02-05T14:18:26.646Z,20.8
2023-02-05T14:48:26.630Z,20.8
2023-02-05T15:18:26.598Z,20.8
2023-02-05T15:48:26.700Z,20.8
2023-02-05T16:18:26.600Z,20.8
2023-02-05T16:48:26.617Z,21.0
2023-02-05T17:18:26.600Z,21.1
2023-02-05T17:48:26.630Z,21.1
2023-02-05T18:18:26.586Z,21.1
2023-02-05T18:48:26.602Z,21.2
2023-02-05T19:18:26.588Z,21.3
2023-02-05T19:48:26.599Z,21.2
2023-02-05T20:18:26.567Z,21.1
2023-02-05T20:48:26.562Z,21.0
2023-02-05T21:18:26.591Z,20.8
2023-02-05T21:48:26.563Z,20.6
2023-02-05T22:18:26.559Z,20.4
2023-02-05T22:48:26.593Z,20.3
2023-02-05T23:18:26.588Z,20.1
2023-02-05T23:48:26.566Z,20.1
